EDDS

Stuttgart Airport

Stuttgart, Germany
TAF EDDS 251700Z 2518/2618 27007KT 9999 FEW045 PROB30 TEMPO 2522/2601 RA BECMG 2607/2609 27012KT TEMPO 2609/2615 27015G25KT BECMG 2616/2618 28007KT
Issued Valid From Valid To
Apr-25 @ 17:00 UTC
(an hour ago)
Apr-25 @ 18:00 UTC
(3 minutes ago)
Apr-26 @ 18:00 UTC
(in 24 hours)
Apr-25 @ 18:00 to Apr-26 @ 07:00
TAF EDDS 251700Z 2518/2618 27007KT 9999 FEW045
Wind Visibility Clouds
270° at 7 knots 10,000+ meters
  • Few at 4,500' AGL
Temporary  (Probability 30%) Apr-25 @ 22:00 to Apr-26 @ 01:00
PROB30 TEMPO 2522/2601 RA
Conditions
  • Rain
Becoming Apr-26 @ 07:00 to Apr-26 @ 16:00
BECMG 2607/2609 27012KT
Wind Visibility Clouds
270° at 12 knots 10,000+ meters
  • Few at 4,500' AGL
Temporary Apr-26 @ 09:00 to Apr-26 @ 15:00
TEMPO 2609/2615 27015G25KT
Wind
270° at 15 knots
 Gusting to 25 knots
Becoming Apr-26 @ 16:00 to Apr-26 @ 18:00
BECMG 2616/2618 28007KT
Wind Visibility Clouds
280° at 7 knots 10,000+ meters
  • Few at 4,500' AGL
TAF EDDS 251700Z 2518/2618 27007KT 9999 FEW045 PROB30 TEMPO 2522/2601 RA BECMG 2607/2609 27012KT TEMPO 2609/2615 27015G25KT BECMG 2616/2618 28007KT
Issued Apr-25 @ 17:00 UTC
(an hour ago)
Valid From Apr-25 @ 18:00 UTC
(3 minutes ago)
Valid To Apr-26 @ 18:00 UTC
(in 24 hours)
Apr-25 @ 18:00 - Apr-26 @ 07:00
Wind Visibility
270° at 7 knots 10,000+ meters
Clouds
  • Few at 4,500' AGL
Probability 30% Temporary Apr-25 @ 22:00 - Apr-26 @ 01:00
Conditions
  • Rain
Becoming Apr-26 @ 07:00 - Apr-26 @ 16:00
Wind Visibility
270° at 12 knots 10,000+ meters
Clouds
  • Few at 4,500' AGL
Temporary Apr-26 @ 09:00 - Apr-26 @ 15:00
Wind
270° at 15 knots
 Gusting to 25 knots
Becoming Apr-26 @ 16:00 - Apr-26 @ 18:00
Wind Visibility
280° at 7 knots 10,000+ meters
Clouds
  • Few at 4,500' AGL